Resilient — WDH7917 — position and weather

sailwx.info

Track history (hours):
 
Tides and Currents Weather Stations Pressure Air Temp Water Temp Dewpoint Dewpoint Depression Visibility Wind Speed Wind Dir Waves Ship Positions

Resilient

Owner: Resilience Marine LLC, Satellite Beach, FL. More information available from US FCC via Universal Licensing System and Coast Guard Vessel Documentation Center.

Last reported at 2018-Jun-05 18:46 UTC. Time now 2018-Jun-24 22:25 UTC.
Position N 38°58' W 076°29'.
Warning: this ship's position is 19 days out of date.

Length 27 m.

Type: Pleasure craft. MMSI: 367652850.

Date/timePositionNaut miles runAvg speedWind from/ knotsBaromVisibWave heightAir tempDewpointWater temp
2018-Jun-05 18:46N 38°58' W 076°29'410.3
2018-Jun-05 18:26N 38°56' W 076°26'12419.7
2018-Jun-05 12:09N 36°52' W 076°20'2 8.6
2018-Jun-05 11:53N 36°51' W 076°18'3 7.4
2018-Jun-05 11:30N 36°48' W 076°18'2 3.0
2018-Jun-05 11:00N 36°46' W 076°18'115 2.4
2018-Jun-03 12:11N 34°53' W 076°41'2 9.8
2018-Jun-03 11:59N 34°51' W 076°41'4 7.5
2018-Jun-03 11:30N 34°48' W 076°41'4 8.3
2018-Jun-03 10:59N 34°43' W 076°42'0 0.0
2018-Jun-03 10:29N 34°43' W 076°42'0 0.0
2018-Jun-03 09:59N 34°43' W 076°42'0 0.0
2018-Jun-03 09:29N 34°43' W 076°42'0 0.0
2018-Jun-03 08:59N 34°43' W 076°42'0 0.0
2018-Jun-03 08:29N 34°43' W 076°42'0 0.0
2018-Jun-03 07:59N 34°43' W 076°42'0 0.0
2018-Jun-03 07:29N 34°43' W 076°42'0 0.0
2018-Jun-03 06:59N 34°43' W 076°42'0 0.0
2018-Jun-03 06:29N 34°43' W 076°42'0 0.0
2018-Jun-03 05:59N 34°43' W 076°42'0 0.0
2018-Jun-03 05:29N 34°43' W 076°42'0 0.0
2018-Jun-03 04:59N 34°43' W 076°42'0 0.0
2018-Jun-03 04:29N 34°43' W 076°42'0 0.0
2018-Jun-03 03:59N 34°43' W 076°42'0 0.0
2018-Jun-03 03:29N 34°43' W 076°42'0 0.0
2018-Jun-03 02:59N 34°43' W 076°42'0 0.0
2018-Jun-03 02:29N 34°43' W 076°42'0 0.0
2018-Jun-03 01:59N 34°43' W 076°42'0 0.0
2018-Jun-03 01:29N 34°43' W 076°42'0 0.0
2018-Jun-03 00:59N 34°43' W 076°42'0 0.0
2018-Jun-03 00:29N 34°43' W 076°42'0 0.0
2018-Jun-02 23:59N 34°43' W 076°42'0 0.0
2018-Jun-02 23:29N 34°43' W 076°42'0 0.0
2018-Jun-02 22:59N 34°43' W 076°42'0 0.0
2018-Jun-02 22:29N 34°43' W 076°42'0 0.0
2018-Jun-02 21:59N 34°43' W 076°42'0 0.0
2018-Jun-02 21:29N 34°43' W 076°42'4 9.5
2018-Jun-02 21:00N 34°39' W 076°41'19719.1
2018-Jun-02 10:40N 32°46' W 079°55'210.7
2018-Jun-02 10:30N 32°46' W 079°57'1 1.0
2018-Jun-02 09:59N 32°47' W 079°57'0 0.0
2018-Jun-02 09:29N 32°47' W 079°57'0 0.0
2018-Jun-02 08:59N 32°47' W 079°57'0 0.0
2018-Jun-02 08:29N 32°47' W 079°57'0 0.0
2018-Jun-02 07:59N 32°47' W 079°57'0 0.0
2018-Jun-02 07:29N 32°47' W 079°57'0 0.0
2018-Jun-02 06:59N 32°47' W 079°57'0 0.0
2018-Jun-02 06:29N 32°47' W 079°57'0 0.0
2018-Jun-02 05:56N 32°47' W 079°57'0 0.0
2018-Jun-02 05:29N 32°47' W 079°57'0 0.0
2018-Jun-02 04:59N 32°47' W 079°57'0 0.0
2018-Jun-02 04:29N 32°47' W 079°57'0 0.0
2018-Jun-02 03:59N 32°47' W 079°57'0 0.0
2018-Jun-02 03:29N 32°47' W 079°57'0 0.0
2018-Jun-02 02:56N 32°47' W 079°57'0 0.0
2018-Jun-02 02:29N 32°47' W 079°57'0 0.0
2018-Jun-02 01:59N 32°47' W 079°57'0 0.0
2018-Jun-02 01:29N 32°47' W 079°57'0 0.0
2018-Jun-02 00:56N 32°47' W 079°57'0 0.0
2018-Jun-02 00:29N 32°47' W 079°57'0 0.0
2018-Jun-01 23:59N 32°47' W 079°57'0 0.0
2018-Jun-01 23:29N 32°47' W 079°57'0 0.0
2018-Jun-01 22:59N 32°47' W 079°57'0 0.0
2018-Jun-01 22:29N 32°47' W 079°57'0 0.0
2018-Jun-01 21:59N 32°47' W 079°57'0 0.0
2018-Jun-01 21:29N 32°47' W 079°57'0 0.0
2018-Jun-01 20:59N 32°47' W 079°57'0 0.4
2018-Jun-01 20:30N 32°47' W 079°57'0 0.5
2018-Jun-01 20:00N 32°46' W 079°57'  
Track history (hours):
 
Tides and Currents Weather Stations Pressure Air Temp Water Temp Dewpoint Dewpoint Depression Visibility Wind Speed Wind Dir Waves Ship Positions

Resilient

Owner: Resilience Marine LLC, Satellite Beach, FL. More information available from US FCC via Universal Licensing System and Coast Guard Vessel Documentation Center.

Last reported at 2018-Jun-05 18:46 UTC. Time now 2018-Jun-24 22:25 UTC.
Position N 38°58' W 076°29'.
Warning: this ship's position is 19 days out of date.

Length 27 m.

Type: Pleasure craft. MMSI: 367652850.

Date/timePositionNaut miles runAvg speedWind from/ knotsBaromVisibWave heightAir tempDewpointWater temp
2018-Jun-05 18:46N 38°58' W 076°29'410.3
2018-Jun-05 18:26N 38°56' W 076°26'12419.7
2018-Jun-05 12:09N 36°52' W 076°20'2 8.6
2018-Jun-05 11:53N 36°51' W 076°18'3 7.4
2018-Jun-05 11:30N 36°48' W 076°18'2 3.0
2018-Jun-05 11:00N 36°46' W 076°18'115 2.4
2018-Jun-03 12:11N 34°53' W 076°41'2 9.8
2018-Jun-03 11:59N 34°51' W 076°41'4 7.5
2018-Jun-03 11:30N 34°48' W 076°41'4 8.3
2018-Jun-03 10:59N 34°43' W 076°42'0 0.0
2018-Jun-03 10:29N 34°43' W 076°42'0 0.0
2018-Jun-03 09:59N 34°43' W 076°42'0 0.0
2018-Jun-03 09:29N 34°43' W 076°42'0 0.0
2018-Jun-03 08:59N 34°43' W 076°42'0 0.0
2018-Jun-03 08:29N 34°43' W 076°42'0 0.0
2018-Jun-03 07:59N 34°43' W 076°42'0 0.0
2018-Jun-03 07:29N 34°43' W 076°42'0 0.0
2018-Jun-03 06:59N 34°43' W 076°42'0 0.0
2018-Jun-03 06:29N 34°43' W 076°42'0 0.0
2018-Jun-03 05:59N 34°43' W 076°42'0 0.0
2018-Jun-03 05:29N 34°43' W 076°42'0 0.0
2018-Jun-03 04:59N 34°43' W 076°42'0 0.0
2018-Jun-03 04:29N 34°43' W 076°42'0 0.0
2018-Jun-03 03:59N 34°43' W 076°42'0 0.0
2018-Jun-03 03:29N 34°43' W 076°42'0 0.0
2018-Jun-03 02:59N 34°43' W 076°42'0 0.0
2018-Jun-03 02:29N 34°43' W 076°42'0 0.0
2018-Jun-03 01:59N 34°43' W 076°42'0 0.0
2018-Jun-03 01:29N 34°43' W 076°42'0 0.0
2018-Jun-03 00:59N 34°43' W 076°42'0 0.0
2018-Jun-03 00:29N 34°43' W 076°42'0 0.0
2018-Jun-02 23:59N 34°43' W 076°42'0 0.0
2018-Jun-02 23:29N 34°43' W 076°42'0 0.0
2018-Jun-02 22:59N 34°43' W 076°42'0 0.0
2018-Jun-02 22:29N 34°43' W 076°42'0 0.0
2018-Jun-02 21:59N 34°43' W 076°42'0 0.0
2018-Jun-02 21:29N 34°43' W 076°42'4 9.5
2018-Jun-02 21:00N 34°39' W 076°41'19719.1
2018-Jun-02 10:40N 32°46' W 079°55'210.7
2018-Jun-02 10:30N 32°46' W 079°57'1 1.0
2018-Jun-02 09:59N 32°47' W 079°57'0 0.0
2018-Jun-02 09:29N 32°47' W 079°57'0 0.0
2018-Jun-02 08:59N 32°47' W 079°57'0 0.0
2018-Jun-02 08:29N 32°47' W 079°57'0 0.0
2018-Jun-02 07:59N 32°47' W 079°57'0 0.0
2018-Jun-02 07:29N 32°47' W 079°57'0 0.0
2018-Jun-02 06:59N 32°47' W 079°57'0 0.0
2018-Jun-02 06:29N 32°47' W 079°57'0 0.0
2018-Jun-02 05:56N 32°47' W 079°57'0 0.0
2018-Jun-02 05:29N 32°47' W 079°57'0 0.0
2018-Jun-02 04:59N 32°47' W 079°57'0 0.0
2018-Jun-02 04:29N 32°47' W 079°57'0 0.0
2018-Jun-02 03:59N 32°47' W 079°57'0 0.0
2018-Jun-02 03:29N 32°47' W 079°57'0 0.0
2018-Jun-02 02:56N 32°47' W 079°57'0 0.0
2018-Jun-02 02:29N 32°47' W 079°57'0 0.0
2018-Jun-02 01:59N 32°47' W 079°57'0 0.0
2018-Jun-02 01:29N 32°47' W 079°57'0 0.0
2018-Jun-02 00:56N 32°47' W 079°57'0 0.0
2018-Jun-02 00:29N 32°47' W 079°57'0 0.0
2018-Jun-01 23:59N 32°47' W 079°57'0 0.0
2018-Jun-01 23:29N 32°47' W 079°57'0 0.0
2018-Jun-01 22:59N 32°47' W 079°57'0 0.0
2018-Jun-01 22:29N 32°47' W 079°57'0 0.0
2018-Jun-01 21:59N 32°47' W 079°57'0 0.0
2018-Jun-01 21:29N 32°47' W 079°57'0 0.0
2018-Jun-01 20:59N 32°47' W 079°57'0 0.4
2018-Jun-01 20:30N 32°47' W 079°57'0 0.5
2018-Jun-01 20:00N 32°46' W 079°57'  

Dump ship's entire track history